Terminal Aerodrome Forecast
Issued by NWS Grand Forks, ND

Home | Current Version | Previous Version | Text Only | Print | Product List | Glossary Off
Versions: 1 2 3 4 5 6 7 8 9 10 11 12 13 14 15 16 17

741
FTUS43 KFGF 161138
TAFGFK
TAF
KGFK 161138Z 1612/1712 24009KT P6SM SKC
     FM170000 19011KT P6SM BKN090
     FM170300 22011KT P6SM BKN070
     FM170900 26008KT P6SM BKN250=

USA.gov is the U.S. government's official web portal to all federal, state and local government web resources and services.